createdAt,value
2023-01-01T00:00:14.501Z,47.37
2023-01-01T00:01:14.471Z,44.63
2023-01-01T00:02:15.366Z,44.63
2023-01-01T00:03:14.426Z,44.47
2023-01-01T00:04:14.490Z,45.92
2023-01-01T00:05:14.403Z,45.92
2023-01-01T00:06:14.396Z,46.08
2023-01-01T00:07:14.388Z,44.15
2023-01-01T00:08:14.393Z,43.34
2023-01-01T00:09:14.385Z,42.54
2023-01-01T00:10:14.391Z,44.15
2023-01-01T00:11:14.364Z,44.79
2023-01-01T00:12:15.376Z,44.63
2023-01-01T00:13:14.368Z,43.99
2023-01-01T00:14:14.334Z,42.06
2023-01-01T00:15:14.344Z,42.86
2023-01-01T00:16:14.460Z,42.70
2023-01-01T00:17:14.351Z,45.12
2023-01-01T00:18:14.320Z,46.25
2023-01-01T00:19:14.300Z,43.67
2023-01-01T00:20:14.371Z,42.22
2023-01-01T00:21:14.346Z,42.86
2023-01-01T00:22:52.783Z,43.83
2023-01-01T00:23:15.293Z,41.89
2023-01-01T00:24:14.342Z,44.79
2023-01-01T00:25:14.274Z,43.18
2023-01-01T00:26:14.247Z,42.70
2023-01-01T00:27:14.291Z,43.34
2023-01-01T00:28:14.239Z,44.31
2023-01-01T00:29:14.273Z,45.28
2023-01-01T00:30:14.404Z,43.34
2023-01-01T00:31:14.277Z,43.34
2023-01-01T00:32:17.719Z,44.31
2023-01-01T00:33:15.273Z,44.15
2023-01-01T00:34:14.241Z,42.22
2023-01-01T00:35:14.234Z,43.02
2023-01-01T00:36:14.283Z,43.34
2023-01-01T00:37:14.199Z,43.18
2023-01-01T00:38:14.317Z,43.18
2023-01-01T00:39:14.237Z,43.02
2023-01-01T00:40:14.174Z,42.70
2023-01-01T00:41:14.162Z,42.38
2023-01-01T00:42:14.148Z,43.34
2023-01-01T00:43:14.161Z,45.60
2023-01-01T00:44:14.152Z,44.96
2023-01-01T00:45:20.500Z,42.38
2023-01-01T00:46:15.285Z,42.06
2023-01-01T00:47:14.249Z,42.54
2023-01-01T00:48:14.124Z,44.31
2023-01-01T00:49:14.154Z,43.34
2023-01-01T00:50:14.367Z,43.67
2023-01-01T00:51:14.107Z,43.67
2023-01-01T00:52:14.121Z,43.67
2023-01-01T00:53:14.081Z,44.47
2023-01-01T00:54:14.061Z,44.47
2023-01-01T00:55:14.111Z,43.18
2023-01-01T00:56:14.055Z,44.79
2023-01-01T00:57:14.065Z,45.12
2023-01-01T00:58:14.056Z,44.63
2023-01-01T00:59:14.041Z,43.34
2023-01-01T01:00:14.040Z,43.18
2023-01-01T01:01:14.148Z,43.18
2023-01-01T01:02:14.162Z,42.06
2023-01-01T01:03:14.048Z,42.54
2023-01-01T01:04:14.007Z,43.83
2023-01-01T01:05:14.049Z,43.34
2023-01-01T01:06:14.005Z,42.70
2023-01-01T01:07:13.993Z,43.67
2023-01-01T01:08:13.999Z,44.15
2023-01-01T01:09:13.992Z,44.47
2023-01-01T01:10:13.987Z,43.67
2023-01-01T01:11:13.989Z,42.38
2023-01-01T01:12:17.495Z,42.86
2023-01-01T01:13:14.947Z,44.31
2023-01-01T01:14:13.944Z,44.96
2023-01-01T01:15:13.968Z,44.15
2023-01-01T01:16:14.008Z,43.02
2023-01-01T01:17:13.950Z,42.06
2023-01-01T01:18:13.915Z,42.38
2023-01-01T01:19:13.929Z,40.44
2023-01-01T01:20:13.904Z,43.51
2023-01-01T01:21:13.964Z,42.38
2023-01-01T01:22:13.893Z,43.67
2023-01-01T01:23:13.900Z,43.02
2023-01-01T01:24:13.906Z,45.12
2023-01-01T01:25:13.883Z,43.02
2023-01-01T01:26:13.886Z,43.18
2023-01-01T01:27:13.927Z,40.93
2023-01-01T01:28:13.854Z,39.80
2023-01-01T01:29:13.864Z,39.64
2023-01-01T01:30:13.837Z,40.61
2023-01-01T01:31:13.851Z,41.89
2023-01-01T01:32:13.822Z,41.25
2023-01-01T01:33:13.835Z,38.99
2023-01-01T01:34:16.293Z,41.09
2023-01-01T01:35:13.820Z,39.80
2023-01-01T01:36:13.807Z,40.44
2023-01-01T01:37:13.850Z,40.12
2023-01-01T01:38:13.807Z,39.32
2023-01-01T01:39:13.786Z,39.16
2023-01-01T01:40:13.768Z,40.12
2023-01-01T01:41:26.787Z,39.96
2023-01-01T01:42:14.747Z,39.64
2023-01-01T01:43:13.757Z,40.77
2023-01-01T01:44:13.748Z,40.44
2023-01-01T01:45:13.764Z,39.96
2023-01-01T01:46:13.836Z,40.61
2023-01-01T01:47:13.715Z,39.16
2023-01-01T01:48:13.716Z,38.51
2023-01-01T01:49:13.750Z,39.48
2023-01-01T01:50:13.687Z,38.99
2023-01-01T01:51:13.726Z,41.73
2023-01-01T01:52:13.699Z,41.73
2023-01-01T01:53:13.730Z,39.80
2023-01-01T01:54:13.823Z,41.09
2023-01-01T01:55:13.714Z,39.48
2023-01-01T01:56:13.721Z,38.67
2023-01-01T01:57:13.734Z,38.03
2023-01-01T01:58:13.668Z,38.35
2023-01-01T01:59:16.358Z,39.64
2023-01-01T02:00:13.647Z,43.67
2023-01-01T02:01:13.756Z,39.32
2023-01-01T02:02:13.821Z,39.16
2023-01-01T02:03:13.696Z,43.02
2023-01-01T02:04:13.608Z,40.28
2023-01-01T02:05:13.708Z,40.61
2023-01-01T02:06:13.604Z,40.93
2023-01-01T02:07:13.634Z,41.73
2023-01-01T02:08:13.626Z,40.44
2023-01-01T02:09:13.648Z,39.32
2023-01-01T02:10:13.747Z,40.93
2023-01-01T02:11:18.749Z,41.25
2023-01-01T02:12:14.592Z,40.44
2023-01-01T02:13:13.597Z,42.86
2023-01-01T02:14:13.548Z,42.86
2023-01-01T02:15:13.611Z,41.25
2023-01-01T02:16:13.612Z,40.12
2023-01-01T02:17:13.541Z,41.73
2023-01-01T02:18:13.547Z,41.25
2023-01-01T02:19:13.551Z,39.80
2023-01-01T02:20:13.533Z,41.25
2023-01-01T02:21:13.504Z,40.12
2023-01-01T02:22:13.488Z,41.09
2023-01-01T02:23:13.502Z,40.93
2023-01-01T02:24:13.465Z,39.80
2023-01-01T02:25:13.514Z,40.44
2023-01-01T02:26:13.477Z,40.12
2023-01-01T02:27:13.463Z,40.12
2023-01-01T02:28:13.457Z,39.80
2023-01-01T02:29:13.483Z,43.67
2023-01-01T02:30:13.745Z,39.96
2023-01-01T02:31:18.221Z,40.61
2023-01-01T02:32:14.444Z,41.89
2023-01-01T02:33:13.437Z,37.87
2023-01-01T02:34:13.421Z,39.32
2023-01-01T02:35:13.425Z,43.99
2023-01-01T02:36:13.429Z,41.89
2023-01-01T02:37:13.418Z,40.12
2023-01-01T02:38:13.417Z,40.61
2023-01-01T02:39:13.420Z,41.25
2023-01-01T02:40:13.383Z,41.73
2023-01-01T02:41:13.410Z,43.02
2023-01-01T02:42:13.371Z,42.86
2023-01-01T02:43:13.373Z,41.25
2023-01-01T02:44:13.422Z,41.41
2023-01-01T02:45:13.370Z,43.34
2023-01-01T02:48:02.369Z,42.38
2023-01-01T02:49:09.665Z,42.06
2023-01-01T02:50:02.318Z,42.22
2023-01-01T02:51:02.337Z,39.64
2023-01-01T02:52:02.350Z,39.80
2023-01-01T02:53:02.331Z,41.25
2023-01-01T02:54:02.306Z,41.09
2023-01-01T02:55:02.474Z,40.93
2023-01-01T02:56:02.290Z,42.06
2023-01-01T02:57:02.339Z,40.12
2023-01-01T02:58:02.330Z,38.99
2023-01-01T02:59:02.274Z,39.96
2023-01-01T03:00:02.290Z,39.32
2023-01-01T03:01:02.338Z,39.48
2023-01-01T03:02:02.380Z,40.12
2023-01-01T03:03:02.453Z,41.09
2023-01-01T03:04:02.260Z,39.32
2023-01-01T03:05:02.268Z,40.61
2023-01-01T03:06:02.251Z,40.61
2023-01-01T03:07:02.232Z,41.25
2023-01-01T03:08:02.249Z,39.32
2023-01-01T03:09:02.265Z,39.96
2023-01-01T03:10:02.243Z,39.48
2023-01-01T03:11:02.193Z,40.44
2023-01-01T03:12:02.203Z,39.96
2023-01-01T03:13:02.205Z,41.89
2023-01-01T03:14:02.189Z,41.89
2023-01-01T03:15:02.201Z,42.22
2023-01-01T03:16:02.219Z,43.51
2023-01-01T03:17:02.172Z,41.73
2023-01-01T03:18:02.153Z,41.57
2023-01-01T03:19:02.148Z,43.83
2023-01-01T03:20:02.144Z,40.28
2023-01-01T03:21:02.122Z,42.38
2023-01-01T03:22:02.125Z,43.34
2023-01-01T03:23:02.306Z,42.54
2023-01-01T03:24:02.089Z,40.93
2023-01-01T03:25:02.133Z,42.22
2023-01-01T03:26:02.120Z,42.22
2023-01-01T03:27:02.119Z,41.09
2023-01-01T03:28:02.074Z,43.67
2023-01-01T03:29:02.080Z,41.57
2023-01-01T03:30:02.045Z,42.38
2023-01-01T03:31:02.200Z,40.61
2023-01-01T03:32:02.036Z,42.22
2023-01-01T03:33:02.136Z,41.89
2023-01-01T03:34:02.034Z,41.73
2023-01-01T03:35:02.034Z,39.80
2023-01-01T03:36:02.039Z,41.09
2023-01-01T03:37:02.037Z,43.67
2023-01-01T03:38:02.009Z,41.73
2023-01-01T03:39:02.047Z,39.64
2023-01-01T03:40:02.125Z,40.44
2023-01-01T03:41:02.027Z,40.93
2023-01-01T03:42:01.976Z,39.96
2023-01-01T03:43:01.988Z,39.64
2023-01-01T03:44:01.945Z,40.93
2023-01-01T03:45:02.047Z,41.57
2023-01-01T03:46:01.967Z,40.77
2023-01-01T03:47:02.042Z,43.18
2023-01-01T03:48:01.964Z,43.34
2023-01-01T03:49:04.151Z,44.47
2023-01-01T03:50:01.921Z,42.22
2023-01-01T03:51:01.950Z,42.38
2023-01-01T03:52:01.927Z,41.41
2023-01-01T03:53:01.925Z,41.09
2023-01-01T03:54:01.904Z,39.96
2023-01-01T03:55:01.882Z,41.09
2023-01-01T03:56:01.869Z,41.73
2023-01-01T03:57:01.912Z,41.09
2023-01-01T03:58:01.871Z,40.93
2023-01-01T03:59:01.880Z,40.44
2023-01-01T04:00:01.890Z,40.61
2023-01-01T04:01:01.965Z,40.93
2023-01-01T04:02:01.946Z,43.02
2023-01-01T04:03:01.932Z,40.44
2023-01-01T04:04:01.817Z,42.06
2023-01-01T04:05:01.894Z,39.80
2023-01-01T04:06:01.826Z,40.93
2023-01-01T04:07:14.073Z,43.34
2023-01-01T04:08:02.815Z,43.18
2023-01-01T04:09:01.789Z,43.18
2023-01-01T04:10:01.779Z,41.41
2023-01-01T04:11:01.788Z,42.06
2023-01-01T04:12:01.785Z,41.73
2023-01-01T04:13:01.759Z,42.86
2023-01-01T04:14:01.751Z,44.15
2023-01-01T04:15:01.764Z,41.89
2023-01-01T04:16:01.804Z,40.93
2023-01-01T04:17:01.860Z,42.06
2023-01-01T04:18:01.723Z,40.44
2023-01-01T04:19:01.714Z,41.25
2023-01-01T04:20:01.750Z,43.51
2023-01-01T04:21:01.723Z,41.41
2023-01-01T04:22:01.735Z,41.89
2023-01-01T04:23:01.742Z,39.80
2023-01-01T04:24:01.669Z,44.79
2023-01-01T04:25:01.685Z,44.31
2023-01-01T04:26:01.682Z,43.18
2023-01-01T04:27:01.698Z,42.86
2023-01-01T04:28:01.697Z,42.70
2023-01-01T04:29:01.655Z,43.18
2023-01-01T04:30:01.636Z,41.89
2023-01-01T04:31:01.656Z,40.28
2023-01-01T04:32:01.627Z,40.93
2023-01-01T04:33:01.663Z,41.89
2023-01-01T04:34:01.605Z,42.06
2023-01-01T04:35:01.623Z,41.57
2023-01-01T04:36:01.684Z,44.31
2023-01-01T04:37:01.618Z,43.18
2023-01-01T04:38:01.589Z,42.06
2023-01-01T04:39:01.588Z,42.22
2023-01-01T04:40:01.545Z,43.67
2023-01-01T04:41:01.581Z,41.41
2023-01-01T04:42:01.568Z,40.28
2023-01-01T04:43:01.622Z,45.28
2023-01-01T04:44:01.533Z,44.96
2023-01-01T04:45:01.545Z,43.02
2023-01-01T04:46:01.639Z,41.73
2023-01-01T04:47:01.525Z,44.15
2023-01-01T04:48:01.522Z,42.22
2023-01-01T04:49:01.525Z,43.18
2023-01-01T04:50:01.569Z,44.79
2023-01-01T04:51:01.516Z,40.61
2023-01-01T04:52:01.494Z,40.44
2023-01-01T04:53:01.488Z,43.83
2023-01-01T04:54:01.474Z,41.41
2023-01-01T04:55:01.533Z,41.73
2023-01-01T04:56:01.564Z,42.86
2023-01-01T04:57:01.446Z,42.22
2023-01-01T04:58:01.462Z,43.34
2023-01-01T04:59:01.457Z,42.70
2023-01-01T05:00:01.436Z,43.18
2023-01-01T05:01:01.793Z,45.12
2023-01-01T05:02:01.700Z,42.86
2023-01-01T05:03:01.490Z,42.38
2023-01-01T05:04:01.419Z,41.89
2023-01-01T05:05:01.498Z,41.25
2023-01-01T05:06:01.414Z,42.06
2023-01-01T05:07:01.407Z,39.32
2023-01-01T05:08:01.389Z,41.89
2023-01-01T05:09:01.394Z,43.18
2023-01-01T05:10:01.349Z,39.80
2023-01-01T05:11:01.404Z,39.16
2023-01-01T05:12:01.349Z,41.89
2023-01-01T05:13:01.392Z,43.02
2023-01-01T05:14:01.364Z,37.87
2023-01-01T05:15:01.340Z,38.67
2023-01-01T05:16:01.359Z,44.15
2023-01-01T05:17:01.320Z,40.44
2023-01-01T05:18:01.306Z,40.28
2023-01-01T05:19:01.353Z,40.28
2023-01-01T05:20:01.311Z,42.86
2023-01-01T05:21:01.304Z,40.93
2023-01-01T05:22:06.876Z,37.06
2023-01-01T05:23:02.311Z,37.87
2023-01-01T05:24:01.319Z,40.93
2023-01-01T05:25:01.278Z,41.57
2023-01-01T05:26:01.294Z,39.32
2023-01-01T05:27:01.234Z,38.83
2023-01-01T05:28:01.232Z,39.80
2023-01-01T05:29:01.241Z,40.93
2023-01-01T05:30:01.232Z,41.57
2023-01-01T05:31:01.215Z,40.61
2023-01-01T05:32:01.305Z,44.31
2023-01-01T05:33:01.176Z,39.96
2023-01-01T05:35:47.677Z,40.12
2023-01-01T05:36:47.684Z,39.80
2023-01-01T05:37:47.647Z,39.80
2023-01-01T05:38:47.633Z,41.25
2023-01-01T05:39:47.651Z,42.54
2023-01-01T05:40:47.619Z,41.09
2023-01-01T05:41:47.637Z,38.67
2023-01-01T05:42:47.654Z,38.83
2023-01-01T05:43:47.621Z,38.67
2023-01-01T05:44:47.613Z,42.70
2023-01-01T05:45:47.647Z,41.25
2023-01-01T05:46:47.598Z,40.44
2023-01-01T05:47:47.587Z,39.64
2023-01-01T05:48:47.617Z,40.28
2023-01-01T05:49:47.579Z,41.73
2023-01-01T05:50:47.584Z,41.09
2023-01-01T05:51:47.623Z,41.57
2023-01-01T05:52:47.577Z,42.70
2023-01-01T05:53:47.619Z,43.51
2023-01-01T05:54:47.662Z,39.48
2023-01-01T05:55:47.533Z,42.86
2023-01-01T05:56:47.583Z,42.70
2023-01-01T05:57:47.516Z,40.44
2023-01-01T05:58:47.520Z,40.44
2023-01-01T05:59:47.602Z,40.77
2023-01-01T06:00:47.573Z,42.70
2023-01-01T06:01:47.615Z,41.73
2023-01-01T06:02:47.532Z,40.61
2023-01-01T06:03:47.495Z,42.22
2023-01-01T06:04:47.518Z,42.86
2023-01-01T06:05:47.491Z,41.25
2023-01-01T06:06:47.459Z,40.28
2023-01-01T06:07:48.779Z,40.77
2023-01-01T06:08:47.471Z,40.61
2023-01-01T06:09:47.449Z,39.96
2023-01-01T06:10:47.449Z,40.44
2023-01-01T06:11:47.446Z,41.57
2023-01-01T06:12:47.453Z,39.80
2023-01-01T06:13:47.445Z,40.28
2023-01-01T06:14:47.450Z,40.61
2023-01-01T06:15:47.391Z,45.12
2023-01-01T06:16:47.437Z,41.89
2023-01-01T06:17:47.407Z,39.48
2023-01-01T06:18:47.408Z,40.93
2023-01-01T06:19:47.420Z,41.41
2023-01-01T06:20:47.358Z,39.16
2023-01-01T06:21:47.357Z,39.64
2023-01-01T06:22:47.348Z,41.41
2023-01-01T06:23:47.352Z,40.77
2023-01-01T06:24:47.361Z,41.73
2023-01-01T06:25:47.354Z,43.02
2023-01-01T06:26:47.341Z,42.06
2023-01-01T06:27:47.338Z,44.15
2023-01-01T06:28:47.321Z,39.96
2023-01-01T06:29:47.290Z,42.54
2023-01-01T06:30:47.338Z,42.22
2023-01-01T06:31:47.412Z,42.22
2023-01-01T06:32:47.291Z,41.25
2023-01-01T06:33:47.369Z,43.67
2023-01-01T06:34:47.307Z,46.08
2023-01-01T06:35:47.319Z,43.99
2023-01-01T06:36:47.277Z,43.18
2023-01-01T06:37:47.267Z,42.22
2023-01-01T06:38:47.250Z,44.96
2023-01-01T06:39:47.235Z,42.54
2023-01-01T06:40:47.296Z,41.57
2023-01-01T06:41:47.285Z,44.79
2023-01-01T06:42:47.205Z,45.60
2023-01-01T06:43:47.312Z,44.47
2023-01-01T06:44:47.228Z,39.80
2023-01-01T06:45:47.208Z,41.41
2023-01-01T06:46:47.236Z,42.86
2023-01-01T06:47:47.261Z,43.18
2023-01-01T06:48:47.221Z,41.25
2023-01-01T06:49:47.185Z,42.70
2023-01-01T06:50:47.137Z,42.06
2023-01-01T06:51:47.187Z,43.34
2023-01-01T06:52:47.123Z,43.83
2023-01-01T06:53:47.165Z,43.02
2023-01-01T06:54:47.164Z,43.51
2023-01-01T06:55:51.677Z,41.09
2023-01-01T06:56:48.161Z,43.67
2023-01-01T06:57:47.101Z,44.31
2023-01-01T06:58:47.122Z,43.18
2023-01-01T06:59:47.137Z,43.18
2023-01-01T07:00:47.124Z,44.31
2023-01-01T07:01:47.190Z,45.44
2023-01-01T07:02:47.193Z,42.86
2023-01-01T07:03:47.404Z,42.06
2023-01-01T07:04:47.038Z,46.73
2023-01-01T07:05:47.119Z,44.79
2023-01-01T07:06:47.043Z,42.54
2023-01-01T07:07:47.032Z,42.22
2023-01-01T07:08:47.019Z,43.67
2023-01-01T07:09:47.034Z,42.70
2023-01-01T07:10:47.001Z,42.70
2023-01-01T07:11:47.025Z,44.63
2023-01-01T07:12:47.002Z,45.60
2023-01-01T07:13:47.032Z,44.47
2023-01-01T07:14:47.054Z,43.67
2023-01-01T07:15:47.026Z,41.41
2023-01-01T07:16:46.967Z,43.18
2023-01-01T07:17:46.952Z,42.38
2023-01-01T07:18:46.967Z,43.18
2023-01-01T07:19:47.022Z,40.93
2023-01-01T07:20:46.960Z,43.18
2023-01-01T07:21:46.930Z,41.73
2023-01-01T07:22:46.910Z,46.08
2023-01-01T07:23:46.950Z,43.67
2023-01-01T07:24:46.914Z,41.41
2023-01-01T07:25:46.940Z,42.54
2023-01-01T07:26:46.889Z,44.31
2023-01-01T07:27:46.894Z,44.15
2023-01-01T07:28:46.996Z,41.57
2023-01-01T07:29:46.936Z,41.41
2023-01-01T07:30:46.964Z,44.47
2023-01-01T07:31:47.415Z,43.67
2023-01-01T07:32:46.870Z,43.67
2023-01-01T07:33:46.850Z,45.76
2023-01-01T07:34:50.690Z,43.51
2023-01-01T07:35:46.856Z,43.34
2023-01-01T07:36:46.853Z,42.38
2023-01-01T07:37:46.849Z,43.67
2023-01-01T07:38:46.794Z,45.76
2023-01-01T07:39:46.819Z,46.41
2023-01-01T07:40:46.813Z,44.96
2023-01-01T07:41:46.802Z,45.92
2023-01-01T07:42:46.804Z,41.25
2023-01-01T07:43:46.798Z,43.02
2023-01-01T07:44:46.834Z,44.15
2023-01-01T07:45:46.867Z,42.54
2023-01-01T07:46:46.860Z,41.89
2023-01-01T07:47:46.760Z,45.28
2023-01-01T07:48:46.770Z,43.83
2023-01-01T07:49:46.754Z,42.86
2023-01-01T07:50:46.796Z,42.06
2023-01-01T07:51:46.748Z,44.63
2023-01-01T07:52:47.049Z,44.79
2023-01-01T07:53:46.722Z,44.79
2023-01-01T07:54:46.704Z,42.70
2023-01-01T07:55:46.707Z,45.28
2023-01-01T07:56:46.692Z,42.54
2023-01-01T07:57:46.720Z,45.76
2023-01-01T07:58:46.683Z,46.25
2023-01-01T07:59:46.679Z,46.73
2023-01-01T08:00:46.683Z,45.76
2023-01-01T08:01:46.989Z,46.08
2023-01-01T08:02:46.915Z,45.60
2023-01-01T08:03:46.641Z,44.96
2023-01-01T08:04:46.624Z,45.92
2023-01-01T08:05:46.624Z,44.96
2023-01-01T08:06:46.633Z,43.99
2023-01-01T08:07:46.686Z,43.02
2023-01-01T08:08:46.624Z,43.18
2023-01-01T08:09:46.663Z,45.12
2023-01-01T08:10:46.611Z,44.47
2023-01-01T08:11:46.641Z,46.08
2023-01-01T08:12:46.583Z,45.76
2023-01-01T08:13:46.594Z,43.51
2023-01-01T08:14:46.602Z,46.41
2023-01-01T08:15:46.581Z,46.73
2023-01-01T08:16:46.577Z,45.12
2023-01-01T08:17:47.495Z,45.92
2023-01-01T08:18:46.535Z,45.44
2023-01-01T08:19:46.549Z,47.37
2023-01-01T08:20:46.600Z,46.08
2023-01-01T08:21:46.526Z,47.05
2023-01-01T08:22:46.514Z,44.96
2023-01-01T08:23:46.519Z,45.28
2023-01-01T08:24:46.538Z,45.76
2023-01-01T08:25:46.505Z,42.86
2023-01-01T08:26:46.496Z,45.76
2023-01-01T08:27:46.477Z,43.99
2023-01-01T08:28:49.659Z,44.79
2023-01-01T08:29:47.474Z,43.99
2023-01-01T08:30:46.443Z,46.08
2023-01-01T08:31:46.524Z,46.08
2023-01-01T08:32:46.464Z,46.73
2023-01-01T08:33:46.445Z,46.25
2023-01-01T08:34:46.467Z,45.76
2023-01-01T08:35:51.981Z,45.76
2023-01-01T08:36:47.461Z,43.99
2023-01-01T08:37:46.423Z,43.18
2023-01-01T08:38:46.427Z,44.79
2023-01-01T08:39:46.479Z,43.83
2023-01-01T08:40:46.381Z,43.83
2023-01-01T08:41:46.376Z,45.44
2023-01-01T08:42:46.406Z,46.25
2023-01-01T08:43:46.365Z,45.92
2023-01-01T08:44:46.373Z,45.60
2023-01-01T08:45:46.385Z,45.12
2023-01-01T08:46:46.413Z,45.92
2023-01-01T08:47:46.373Z,47.86
2023-01-01T08:48:46.350Z,48.18
2023-01-01T08:49:46.314Z,46.57
2023-01-01T08:50:46.309Z,48.34
2023-01-01T08:51:46.298Z,49.15
2023-01-01T08:52:46.303Z,48.34
2023-01-01T08:53:50.874Z,47.70
2023-01-01T08:54:47.288Z,47.70
2023-01-01T08:55:46.275Z,48.82
2023-01-01T08:56:46.286Z,48.02
2023-01-01T08:57:46.275Z,47.37
2023-01-01T08:58:46.274Z,46.57
2023-01-01T08:59:46.268Z,48.50
2023-01-01T09:00:46.226Z,49.15
2023-01-01T09:01:46.468Z,46.73
2023-01-01T09:02:46.385Z,44.31
2023-01-01T09:03:46.285Z,44.96
2023-01-01T09:04:46.260Z,47.05
2023-01-01T09:05:46.231Z,46.08
2023-01-01T09:06:46.209Z,47.70
2023-01-01T09:07:46.204Z,47.05
2023-01-01T09:08:46.174Z,46.41
2023-01-01T09:09:46.184Z,47.05
2023-01-01T09:10:46.172Z,47.70
2023-01-01T09:11:46.173Z,48.02
2023-01-01T09:12:46.229Z,45.92
2023-01-01T09:13:46.190Z,47.21
2023-01-01T09:14:46.147Z,47.86
2023-01-01T09:15:46.234Z,48.02
2023-01-01T09:16:46.181Z,47.37
2023-01-01T09:17:46.140Z,47.05
2023-01-01T09:18:46.113Z,47.37
2023-01-01T09:19:46.124Z,47.21
2023-01-01T09:20:46.113Z,46.57
2023-01-01T09:21:46.088Z,45.12
2023-01-01T09:22:46.085Z,46.73
2023-01-01T09:23:46.087Z,46.41
2023-01-01T09:24:46.099Z,45.12
2023-01-01T09:25:46.072Z,47.53
2023-01-01T09:26:46.045Z,48.34
2023-01-01T09:27:46.048Z,49.79
2023-01-01T09:28:46.047Z,47.05
2023-01-01T09:29:46.053Z,46.41
2023-01-01T09:30:46.056Z,44.96
2023-01-01T09:31:46.123Z,45.76
2023-01-01T09:32:46.040Z,48.18
2023-01-01T09:33:46.036Z,47.86
2023-01-01T09:34:51.967Z,45.76
2023-01-01T09:35:46.995Z,46.41
2023-01-01T09:36:46.066Z,45.12
2023-01-01T09:37:45.998Z,47.21
2023-01-01T09:38:45.961Z,47.21
2023-01-01T09:39:45.972Z,48.66
2023-01-01T09:40:50.979Z,48.18
2023-01-01T09:41:46.978Z,48.66
2023-01-01T09:42:46.070Z,48.50
2023-01-01T09:43:45.948Z,46.73
2023-01-01T09:44:45.966Z,45.44
2023-01-01T09:45:45.972Z,47.21
2023-01-01T09:46:45.918Z,47.53
2023-01-01T09:47:46.001Z,45.12
2023-01-01T09:48:45.918Z,47.86
2023-01-01T09:49:45.894Z,47.37
2023-01-01T09:50:45.896Z,47.70
2023-01-01T09:51:52.361Z,48.66
2023-01-01T09:52:47.074Z,48.02
2023-01-01T09:53:45.894Z,47.05
2023-01-01T09:54:45.870Z,46.41
2023-01-01T09:55:45.900Z,46.41
2023-01-01T09:56:45.846Z,46.89
2023-01-01T09:57:45.880Z,48.34
2023-01-01T09:58:45.863Z,48.18
2023-01-01T09:59:45.833Z,47.21
2023-01-01T10:00:45.826Z,48.98
2023-01-01T10:01:45.935Z,47.86
2023-01-01T10:02:51.503Z,47.86
2023-01-01T10:03:45.819Z,45.92
2023-01-01T10:04:45.795Z,48.02
2023-01-01T10:05:45.797Z,46.25
2023-01-01T10:06:45.788Z,47.21
2023-01-01T10:07:45.816Z,47.21
2023-01-01T10:08:45.850Z,47.05
2023-01-01T10:09:45.752Z,49.31
2023-01-01T10:10:45.778Z,49.15
2023-01-01T10:11:45.805Z,48.66
2023-01-01T10:12:45.753Z,47.21
2023-01-01T10:13:45.755Z,47.21
2023-01-01T10:14:45.721Z,48.98
2023-01-01T10:15:45.714Z,47.21
2023-01-01T10:16:45.754Z,48.66
2023-01-01T10:17:45.711Z,48.02
2023-01-01T10:18:45.687Z,48.02
2023-01-01T10:19:53.001Z,47.05
2023-01-01T10:20:45.680Z,47.53
2023-01-01T10:21:47.429Z,47.53
2023-01-01T10:22:45.672Z,48.98
2023-01-01T10:23:45.672Z,48.02
2023-01-01T10:24:45.708Z,49.47
2023-01-01T10:25:45.691Z,48.98
2023-01-01T10:26:45.636Z,49.47
2023-01-01T10:27:45.692Z,49.31
2023-01-01T10:28:45.666Z,48.82
2023-01-01T10:29:45.638Z,49.95
2023-01-01T10:30:45.611Z,48.82
2023-01-01T10:31:45.635Z,48.82
2023-01-01T10:32:45.727Z,48.50
2023-01-01T10:33:45.587Z,48.18
2023-01-01T10:34:45.614Z,48.82
2023-01-01T10:35:45.591Z,47.21
2023-01-01T10:36:45.957Z,48.02
2023-01-01T10:37:45.598Z,50.43
2023-01-01T10:38:45.545Z,49.31
2023-01-01T10:39:45.576Z,49.63
2023-01-01T10:40:45.583Z,46.25
2023-01-01T10:41:45.555Z,48.98
2023-01-01T10:42:45.538Z,48.82
2023-01-01T10:43:45.571Z,50.92
2023-01-01T10:44:45.506Z,50.11
2023-01-01T10:45:46.570Z,51.56
2023-01-01T10:46:45.501Z,50.92
2023-01-01T10:47:45.518Z,49.63
2023-01-01T10:48:45.492Z,49.63
2023-01-01T10:49:45.471Z,51.56
2023-01-01T10:50:45.492Z,50.11
2023-01-01T10:51:45.487Z,49.95
2023-01-01T10:52:45.446Z,50.60
2023-01-01T10:53:45.450Z,49.79
2023-01-01T10:54:45.955Z,50.27
2023-01-01T10:55:46.433Z,48.18
2023-01-01T10:56:45.562Z,50.27
2023-01-01T10:57:45.426Z,50.11
2023-01-01T10:58:45.424Z,51.40
2023-01-01T10:59:50.066Z,51.88
2023-01-01T11:00:46.386Z,50.60
2023-01-01T11:01:45.569Z,51.08
2023-01-01T11:02:45.503Z,49.47
2023-01-01T11:03:45.385Z,52.21
2023-01-01T11:04:45.358Z,50.60
2023-01-01T11:05:45.370Z,51.56
2023-01-01T11:06:45.337Z,49.15
2023-01-01T11:07:45.348Z,50.27
2023-01-01T11:08:45.503Z,50.27
2023-01-01T11:10:02.055Z,50.27
2023-01-01T11:10:46.348Z,49.47
2023-01-01T11:11:45.343Z,50.11
2023-01-01T11:13:46.302Z,51.08
2023-01-01T11:14:45.287Z,50.11
2023-01-01T11:15:45.286Z,50.60
2023-01-01T11:16:45.282Z,49.15
2023-01-01T11:17:45.280Z,50.92
2023-01-01T11:18:45.254Z,48.02
2023-01-01T11:19:50.745Z,49.31
2023-01-01T11:20:45.285Z,50.76
2023-01-01T11:21:45.264Z,49.63
2023-01-01T11:22:45.232Z,48.98
2023-01-01T11:23:45.234Z,50.11
2023-01-01T11:24:45.215Z,49.31
2023-01-01T11:25:45.425Z,51.40
2023-01-01T11:26:50.545Z,49.63
2023-01-01T11:27:46.188Z,49.31
2023-01-01T11:28:45.211Z,48.82
2023-01-01T11:29:45.175Z,50.60
2023-01-01T11:30:45.263Z,49.15
2023-01-01T11:31:45.185Z,50.11
2023-01-01T11:32:48.133Z,50.11
2023-01-01T11:33:46.168Z,49.95
2023-01-01T11:34:45.198Z,50.11
2023-01-01T11:35:45.149Z,49.63
2023-01-01T11:36:45.189Z,49.95
2023-01-01T11:37:45.175Z,51.08
2023-01-01T11:38:45.106Z,49.31
2023-01-01T11:39:45.112Z,50.11
2023-01-01T11:40:45.100Z,50.27
2023-01-01T11:41:45.107Z,51.40
2023-01-01T11:42:45.162Z,48.18
2023-01-01T11:43:46.096Z,50.60
2023-01-01T11:44:45.248Z,49.95
2023-01-01T11:45:45.311Z,49.31
2023-01-01T11:46:45.041Z,49.47
2023-01-01T11:47:45.151Z,49.47
2023-01-01T11:48:45.096Z,48.34
2023-01-01T11:49:45.046Z,49.47
2023-01-01T11:50:50.374Z,48.02
2023-01-01T11:51:46.150Z,48.34
2023-01-01T11:52:45.024Z,46.89
2023-01-01T11:53:45.080Z,49.31
2023-01-01T11:54:44.999Z,48.34
2023-01-01T11:55:44.985Z,48.82
2023-01-01T11:56:45.008Z,50.11
2023-01-01T11:57:44.985Z,48.66
2023-01-01T11:58:44.973Z,48.82
2023-01-01T11:59:44.972Z,49.47
2023-01-01T12:00:45.104Z,48.82
2023-01-01T12:01:45.007Z,49.79
2023-01-01T12:02:44.960Z,48.50
2023-01-01T12:03:44.949Z,51.56
2023-01-01T12:04:44.936Z,48.66
2023-01-01T12:05:44.936Z,50.11
2023-01-01T12:06:44.906Z,49.31
2023-01-01T12:07:44.910Z,48.34
2023-01-01T12:08:45.005Z,50.11
2023-01-01T12:09:44.884Z,49.47
2023-01-01T12:10:44.948Z,49.31
2023-01-01T12:11:44.891Z,49.63
2023-01-01T12:12:44.950Z,50.92
2023-01-01T12:13:44.866Z,51.24
2023-01-01T12:14:44.836Z,50.27
2023-01-01T12:15:45.134Z,50.76
2023-01-01T12:16:44.867Z,49.47
2023-01-01T12:17:44.853Z,48.98
2023-01-01T12:18:44.845Z,49.31
2023-01-01T12:19:44.831Z,48.82
2023-01-01T12:20:46.512Z,49.47
2023-01-01T12:21:50.775Z,50.11
2023-01-01T12:22:45.811Z,48.98
2023-01-01T12:23:44.801Z,50.92
2023-01-01T12:24:44.778Z,50.27
2023-01-01T12:25:44.787Z,51.08
2023-01-01T12:26:44.771Z,50.27
2023-01-01T12:27:44.764Z,49.47
2023-01-01T12:28:44.752Z,52.05
2023-01-01T12:29:44.736Z,50.27
2023-01-01T12:30:44.766Z,50.11
2023-01-01T12:31:44.805Z,49.47
2023-01-01T12:32:44.858Z,50.60
2023-01-01T12:33:44.726Z,50.43
2023-01-01T12:34:44.694Z,50.27
2023-01-01T12:35:44.703Z,49.63
2023-01-01T12:36:44.713Z,48.82
2023-01-01T12:37:45.498Z,50.43
2023-01-01T12:38:44.670Z,50.60
2023-01-01T12:39:44.716Z,50.27
2023-01-01T12:40:44.697Z,50.76
2023-01-01T12:41:44.655Z,50.60
2023-01-01T12:42:44.820Z,50.27
2023-01-01T12:43:44.737Z,48.34
2023-01-01T12:44:44.631Z,48.66
2023-01-01T12:45:44.681Z,50.11
2023-01-01T12:46:44.657Z,49.79
2023-01-01T12:47:44.681Z,50.92
2023-01-01T12:48:44.722Z,49.47
2023-01-01T12:49:44.594Z,50.76
2023-01-01T12:50:48.054Z,49.95
2023-01-01T12:51:45.630Z,48.34
2023-01-01T12:52:44.803Z,49.79
2023-01-01T12:53:44.575Z,49.63
2023-01-01T12:54:44.547Z,49.15
2023-01-01T12:55:44.534Z,49.15
2023-01-01T12:56:44.541Z,48.98